sensor_id;sensor_type;location;lat;lon;timestamp;temperature;humidity
22122;DHT22;11227;53.046;10.512;2022-12-26T00:01:55;14.20;1.00
22122;DHT22;11227;53.046;10.512;2022-12-26T00:05:56;14.20;1.00
22122;DHT22;11227;53.046;10.512;2022-12-26T00:09:58;14.20;1.00
22122;DHT22;11227;53.046;10.512;2022-12-26T00:14:06;14.20;1.00
22122;DHT22;11227;53.046;10.512;2022-12-26T00:18:08;14.20;1.00
22122;DHT22;11227;53.046;10.512;2022-12-26T00:22:09;14.20;1.00
22122;DHT22;11227;53.046;10.512;2022-12-26T00:26:17;14.20;1.00
22122;DHT22;11227;53.046;10.512;2022-12-26T00:30:19;14.20;1.00
22122;DHT22;11227;53.046;10.512;2022-12-26T00:34:20;14.20;1.00
22122;DHT22;11227;53.046;10.512;2022-12-26T00:38:22;14.20;1.00
22122;DHT22;11227;53.046;10.512;2022-12-26T00:42:24;14.20;1.00
22122;DHT22;11227;53.046;10.512;2022-12-26T00:46:26;14.20;1.00
22122;DHT22;11227;53.046;10.512;2022-12-26T00:50:28;14.20;1.00
22122;DHT22;11227;53.046;10.512;2022-12-26T00:54:35;14.20;1.00
22122;DHT22;11227;53.046;10.512;2022-12-26T00:58:37;14.20;1.00
22122;DHT22;11227;53.046;10.512;2022-12-26T01:02:39;14.20;1.00
22122;DHT22;11227;53.046;10.512;2022-12-26T01:06:41;14.20;1.00
22122;DHT22;11227;53.046;10.512;2022-12-26T01:10:44;14.20;1.00
22122;DHT22;11227;53.046;10.512;2022-12-26T01:14:46;14.20;1.00
22122;DHT22;11227;53.046;10.512;2022-12-26T01:18:47;14.20;1.00
22122;DHT22;11227;53.046;10.512;2022-12-26T01:22:49;14.20;1.00
22122;DHT22;11227;53.046;10.512;2022-12-26T01:26:51;14.20;1.00
22122;DHT22;11227;53.046;10.512;2022-12-26T01:30:54;14.20;1.00
22122;DHT22;11227;53.046;10.512;2022-12-26T01:34:55;14.20;1.00
22122;DHT22;11227;53.046;10.512;2022-12-26T01:38:57;14.20;1.00
22122;DHT22;11227;53.046;10.512;2022-12-26T01:42:58;14.20;1.00
22122;DHT22;11227;53.046;10.512;2022-12-26T01:47:00;14.20;1.00
22122;DHT22;11227;53.046;10.512;2022-12-26T01:51:04;14.20;1.00
22122;DHT22;11227;53.046;10.512;2022-12-26T01:55:08;14.20;1.00
22122;DHT22;11227;53.046;10.512;2022-12-26T01:59:16;14.10;1.00
22122;DHT22;11227;53.046;10.512;2022-12-26T02:03:18;14.20;1.00
22122;DHT22;11227;53.046;10.512;2022-12-26T02:07:43;14.20;1.00
22122;DHT22;11227;53.046;10.512;2022-12-26T02:12:05;14.10;1.00
22122;DHT22;11227;53.046;10.512;2022-12-26T02:16:28;14.20;1.00
22122;DHT22;11227;53.046;10.512;2022-12-26T02:20:42;14.20;1.00
22122;DHT22;11227;53.046;10.512;2022-12-26T02:42:25;14.10;1.00
22122;DHT22;11227;53.046;10.512;2022-12-26T02:46:50;14.10;1.00
22122;DHT22;11227;53.046;10.512;2022-12-26T02:51:26;14.10;1.00
22122;DHT22;11227;53.046;10.512;2022-12-26T02:55:54;14.10;1.00
22122;DHT22;11227;53.046;10.512;2022-12-26T03:00:18;14.20;1.00
22122;DHT22;11227;53.046;10.512;2022-12-26T03:04:41;14.20;1.00
22122;DHT22;11227;53.046;10.512;2022-12-26T03:09:05;14.10;1.00
22122;DHT22;11227;53.046;10.512;2022-12-26T03:13:30;14.10;1.00
22122;DHT22;11227;53.046;10.512;2022-12-26T03:17:48;14.10;1.00
22122;DHT22;11227;53.046;10.512;2022-12-26T03:21:50;14.10;1.00
22122;DHT22;11227;53.046;10.512;2022-12-26T03:26:03;14.10;1.00
22122;DHT22;11227;53.046;10.512;2022-12-26T03:30:25;14.10;1.00
22122;DHT22;11227;53.046;10.512;2022-12-26T03:34:46;14.20;1.00
22122;DHT22;11227;53.046;10.512;2022-12-26T03:39:25;14.10;1.00
22122;DHT22;11227;53.046;10.512;2022-12-26T03:45:02;14.10;1.00
22122;DHT22;11227;53.046;10.512;2022-12-26T03:53:34;14.10;1.00
22122;DHT22;11227;53.046;10.512;2022-12-26T03:58:16;14.10;1.00
22122;DHT22;11227;53.046;10.512;2022-12-26T04:02:43;14.10;1.00
22122;DHT22;11227;53.046;10.512;2022-12-26T04:07:14;14.10;1.00
22122;DHT22;11227;53.046;10.512;2022-12-26T04:11:58;14.10;1.00
22122;DHT22;11227;53.046;10.512;2022-12-26T04:16:26;14.10;1.00
22122;DHT22;11227;53.046;10.512;2022-12-26T04:21:25;14.10;1.00
22122;DHT22;11227;53.046;10.512;2022-12-26T04:25:57;14.10;1.00
22122;DHT22;11227;53.046;10.512;2022-12-26T04:30:21;14.10;1.00
22122;DHT22;11227;53.046;10.512;2022-12-26T04:34:53;14.10;1.00
22122;DHT22;11227;53.046;10.512;2022-12-26T04:39:18;14.20;1.00
22122;DHT22;11227;53.046;10.512;2022-12-26T04:43:40;14.10;1.00
22122;DHT22;11227;53.046;10.512;2022-12-26T04:48:01;14.10;1.00
22122;DHT22;11227;53.046;10.512;2022-12-26T04:52:21;14.10;1.00
22122;DHT22;11227;53.046;10.512;2022-12-26T04:56:24;14.10;1.00
22122;DHT22;11227;53.046;10.512;2022-12-26T05:00:27;14.10;1.00
22122;DHT22;11227;53.046;10.512;2022-12-26T05:04:29;14.20;1.00
22122;DHT22;11227;53.046;10.512;2022-12-26T05:08:49;14.10;1.00
22122;DHT22;11227;53.046;10.512;2022-12-26T05:13:09;14.10;1.00
22122;DHT22;11227;53.046;10.512;2022-12-26T05:17:12;14.20;1.00
22122;DHT22;11227;53.046;10.512;2022-12-26T05:21:32;14.10;1.00
22122;DHT22;11227;53.046;10.512;2022-12-26T05:25:53;14.20;1.00
22122;DHT22;11227;53.046;10.512;2022-12-26T05:30:14;14.20;1.00
22122;DHT22;11227;53.046;10.512;2022-12-26T05:34:16;14.20;1.00
22122;DHT22;11227;53.046;10.512;2022-12-26T05:38:21;14.20;1.00
22122;DHT22;11227;53.046;10.512;2022-12-26T05:42:22;14.20;1.00
22122;DHT22;11227;53.046;10.512;2022-12-26T05:46:24;14.20;1.00
22122;DHT22;11227;53.046;10.512;2022-12-26T05:50:26;14.20;1.00
22122;DHT22;11227;53.046;10.512;2022-12-26T05:54:28;14.20;1.00
22122;DHT22;11227;53.046;10.512;2022-12-26T05:58:30;14.20;1.00
22122;DHT22;11227;53.046;10.512;2022-12-26T06:02:32;14.20;1.00
22122;DHT22;11227;53.046;10.512;2022-12-26T06:06:34;14.20;1.00
22122;DHT22;11227;53.046;10.512;2022-12-26T06:10:35;14.20;1.00
22122;DHT22;11227;53.046;10.512;2022-12-26T06:14:37;14.20;1.00
22122;DHT22;11227;53.046;10.512;2022-12-26T06:18:39;14.20;1.00
22122;DHT22;11227;53.046;10.512;2022-12-26T06:22:40;14.20;1.00
22122;DHT22;11227;53.046;10.512;2022-12-26T06:26:42;14.20;1.00
22122;DHT22;11227;53.046;10.512;2022-12-26T06:30:44;14.20;1.00
22122;DHT22;11227;53.046;10.512;2022-12-26T06:34:46;14.20;1.00
22122;DHT22;11227;53.046;10.512;2022-12-26T06:38:48;14.20;1.00
22122;DHT22;11227;53.046;10.512;2022-12-26T06:42:50;14.20;1.00
22122;DHT22;11227;53.046;10.512;2022-12-26T06:46:52;14.20;1.00
22122;DHT22;11227;53.046;10.512;2022-12-26T06:50:53;14.20;1.00
22122;DHT22;11227;53.046;10.512;2022-12-26T06:54:55;14.20;1.00
22122;DHT22;11227;53.046;10.512;2022-12-26T06:59:00;14.20;1.00
22122;DHT22;11227;53.046;10.512;2022-12-26T07:03:03;14.20;1.00
22122;DHT22;11227;53.046;10.512;2022-12-26T07:07:05;14.20;1.00
22122;DHT22;11227;53.046;10.512;2022-12-26T07:11:13;14.20;1.00
22122;DHT22;11227;53.046;10.512;2022-12-26T07:15:15;14.20;1.00
22122;DHT22;11227;53.046;10.512;2022-12-26T07:19:16;14.20;1.00
22122;DHT22;11227;53.046;10.512;2022-12-26T07:23:18;14.20;1.00
22122;DHT22;11227;53.046;10.512;2022-12-26T07:27:20;14.20;1.00
22122;DHT22;11227;53.046;10.512;2022-12-26T07:31:22;14.20;1.00
22122;DHT22;11227;53.046;10.512;2022-12-26T07:35:24;14.20;1.00
22122;DHT22;11227;53.046;10.512;2022-12-26T07:39:25;14.20;1.00
22122;DHT22;11227;53.046;10.512;2022-12-26T07:43:27;14.20;1.00
22122;DHT22;11227;53.046;10.512;2022-12-26T07:47:28;14.20;1.00
22122;DHT22;11227;53.046;10.512;2022-12-26T07:51:30;14.20;1.00
22122;DHT22;11227;53.046;10.512;2022-12-26T07:55:32;14.20;1.00
22122;DHT22;11227;53.046;10.512;2022-12-26T07:59:34;14.20;1.00
22122;DHT22;11227;53.046;10.512;2022-12-26T08:03:36;14.20;1.00
22122;DHT22;11227;53.046;10.512;2022-12-26T08:07:38;14.20;1.00
22122;DHT22;11227;53.046;10.512;2022-12-26T08:11:39;14.20;1.00
22122;DHT22;11227;53.046;10.512;2022-12-26T08:15:41;14.20;1.00
22122;DHT22;11227;53.046;10.512;2022-12-26T08:19:43;14.20;1.00
22122;DHT22;11227;53.046;10.512;2022-12-26T08:23:45;14.20;1.00
22122;DHT22;11227;53.046;10.512;2022-12-26T08:27:48;14.20;1.00
22122;DHT22;11227;53.046;10.512;2022-12-26T08:31:50;14.20;1.00
22122;DHT22;11227;53.046;10.512;2022-12-26T08:35:51;14.20;1.00
22122;DHT22;11227;53.046;10.512;2022-12-26T08:39:53;14.20;1.00
22122;DHT22;11227;53.046;10.512;2022-12-26T08:43:55;14.20;1.00
22122;DHT22;11227;53.046;10.512;2022-12-26T08:48:17;14.20;1.00
22122;DHT22;11227;53.046;10.512;2022-12-26T08:52:18;14.20;1.00
22122;DHT22;11227;53.046;10.512;2022-12-26T08:56:23;14.20;1.00
22122;DHT22;11227;53.046;10.512;2022-12-26T09:00:24;14.20;1.00
22122;DHT22;11227;53.046;10.512;2022-12-26T09:04:26;14.20;1.00
22122;DHT22;11227;53.046;10.512;2022-12-26T09:08:29;14.20;1.00
22122;DHT22;11227;53.046;10.512;2022-12-26T09:12:31;14.20;1.00
22122;DHT22;11227;53.046;10.512;2022-12-26T09:16:35;14.20;1.00
22122;DHT22;11227;53.046;10.512;2022-12-26T09:20:46;14.20;1.00
22122;DHT22;11227;53.046;10.512;2022-12-26T09:24:47;14.20;1.00
22122;DHT22;11227;53.046;10.512;2022-12-26T09:28:50;14.20;1.00
22122;DHT22;11227;53.046;10.512;2022-12-26T09:32:52;14.20;1.00
22122;DHT22;11227;53.046;10.512;2022-12-26T09:36:54;14.20;1.00
22122;DHT22;11227;53.046;10.512;2022-12-26T09:45:33;14.20;1.00
22122;DHT22;11227;53.046;10.512;2022-12-26T09:49:54;14.20;1.00
22122;DHT22;11227;53.046;10.512;2022-12-26T09:53:58;14.20;1.00
22122;DHT22;11227;53.046;10.512;2022-12-26T09:58:25;14.20;1.00
22122;DHT22;11227;53.046;10.512;2022-12-26T10:02:28;14.20;1.00
22122;DHT22;11227;53.046;10.512;2022-12-26T10:06:36;14.20;1.00
22122;DHT22;11227;53.046;10.512;2022-12-26T10:10:48;14.20;1.00
22122;DHT22;11227;53.046;10.512;2022-12-26T10:15:28;14.20;1.00
22122;DHT22;11227;53.046;10.512;2022-12-26T10:23:58;14.20;1.00
22122;DHT22;11227;53.046;10.512;2022-12-26T10:28:03;14.20;1.00
22122;DHT22;11227;53.046;10.512;2022-12-26T10:32:16;14.20;1.00
22122;DHT22;11227;53.046;10.512;2022-12-26T10:36:43;14.20;1.00
22122;DHT22;11227;53.046;10.512;2022-12-26T10:40:47;14.20;1.00
22122;DHT22;11227;53.046;10.512;2022-12-26T10:44:50;14.30;1.00
22122;DHT22;11227;53.046;10.512;2022-12-26T10:48:53;14.30;1.00
22122;DHT22;11227;53.046;10.512;2022-12-26T10:52:56;14.30;1.00
22122;DHT22;11227;53.046;10.512;2022-12-26T10:56:59;14.40;1.00
22122;DHT22;11227;53.046;10.512;2022-12-26T11:01:34;14.50;1.00
22122;DHT22;11227;53.046;10.512;2022-12-26T11:05:41;14.60;1.00
22122;DHT22;11227;53.046;10.512;2022-12-26T11:10:12;14.70;1.00
22122;DHT22;11227;53.046;10.512;2022-12-26T11:14:37;14.70;1.00
22122;DHT22;11227;53.046;10.512;2022-12-26T11:18:46;14.70;1.00
22122;DHT22;11227;53.046;10.512;2022-12-26T11:22:49;14.80;1.00
22122;DHT22;11227;53.046;10.512;2022-12-26T11:26:51;14.80;1.00
22122;DHT22;11227;53.046;10.512;2022-12-26T11:30:52;14.80;1.00
22122;DHT22;11227;53.046;10.512;2022-12-26T11:34:55;14.80;1.00
22122;DHT22;11227;53.046;10.512;2022-12-26T11:39:18;14.80;1.00
22122;DHT22;11227;53.046;10.512;2022-12-26T11:43:21;14.80;1.00
22122;DHT22;11227;53.046;10.512;2022-12-26T11:47:27;14.80;1.00
22122;DHT22;11227;53.046;10.512;2022-12-26T11:51:38;14.80;1.00
22122;DHT22;11227;53.046;10.512;2022-12-26T11:55:42;14.80;1.00
22122;DHT22;11227;53.046;10.512;2022-12-26T11:59:45;14.80;1.00
22122;DHT22;11227;53.046;10.512;2022-12-26T12:03:47;14.80;1.00
22122;DHT22;11227;53.046;10.512;2022-12-26T12:16:43;14.80;1.00
22122;DHT22;11227;53.046;10.512;2022-12-26T12:25:39;14.80;1.00
22122;DHT22;11227;53.046;10.512;2022-12-26T12:29:56;14.80;1.00
22122;DHT22;11227;53.046;10.512;2022-12-26T12:34:17;14.80;1.00
22122;DHT22;11227;53.046;10.512;2022-12-26T12:43:19;14.80;1.00
22122;DHT22;11227;53.046;10.512;2022-12-26T12:47:52;14.80;1.00
22122;DHT22;11227;53.046;10.512;2022-12-26T12:52:09;14.80;1.00
22122;DHT22;11227;53.046;10.512;2022-12-26T13:01:03;14.80;1.00
22122;DHT22;11227;53.046;10.512;2022-12-26T13:09:27;14.80;1.00
22122;DHT22;11227;53.046;10.512;2022-12-26T13:13:38;14.90;1.00
22122;DHT22;11227;53.046;10.512;2022-12-26T13:17:55;14.90;1.00
22122;DHT22;11227;53.046;10.512;2022-12-26T13:22:02;14.80;1.00
22122;DHT22;11227;53.046;10.512;2022-12-26T13:26:12;14.80;1.00
22122;DHT22;11227;53.046;10.512;2022-12-26T13:30:16;14.80;1.00
22122;DHT22;11227;53.046;10.512;2022-12-26T13:34:19;14.80;1.00
22122;DHT22;11227;53.046;10.512;2022-12-26T13:38:22;14.80;1.00
22122;DHT22;11227;53.046;10.512;2022-12-26T13:42:31;14.90;1.00
22122;DHT22;11227;53.046;10.512;2022-12-26T13:46:55;14.90;1.00
22122;DHT22;11227;53.046;10.512;2022-12-26T13:51:04;14.90;1.00
22122;DHT22;11227;53.046;10.512;2022-12-26T13:59:38;14.90;1.00
22122;DHT22;11227;53.046;10.512;2022-12-26T14:16:52;14.90;1.00
22122;DHT22;11227;53.046;10.512;2022-12-26T14:25:52;14.90;1.00
22122;DHT22;11227;53.046;10.512;2022-12-26T14:34:35;14.90;1.00
22122;DHT22;11227;53.046;10.512;2022-12-26T14:39:03;14.90;1.00
22122;DHT22;11227;53.046;10.512;2022-12-26T14:47:44;14.90;1.00
22122;DHT22;11227;53.046;10.512;2022-12-26T14:51:46;14.90;1.00
22122;DHT22;11227;53.046;10.512;2022-12-26T14:55:51;14.90;1.00
22122;DHT22;11227;53.046;10.512;2022-12-26T15:00:14;14.90;1.00
22122;DHT22;11227;53.046;10.512;2022-12-26T15:04:36;14.90;1.00
22122;DHT22;11227;53.046;10.512;2022-12-26T15:08:55;14.90;1.00
22122;DHT22;11227;53.046;10.512;2022-12-26T15:22:39;14.90;1.00
22122;DHT22;11227;53.046;10.512;2022-12-26T15:31:24;14.90;1.00
22122;DHT22;11227;53.046;10.512;2022-12-26T15:39:52;14.90;1.00
22122;DHT22;11227;53.046;10.512;2022-12-26T15:44:13;14.90;1.00
22122;DHT22;11227;53.046;10.512;2022-12-26T15:57:59;14.90;1.00
22122;DHT22;11227;53.046;10.512;2022-12-26T16:01:59;14.90;1.00
22122;DHT22;11227;53.046;10.512;2022-12-26T16:10:33;14.90;1.00
22122;DHT22;11227;53.046;10.512;2022-12-26T16:14:37;14.90;1.00
22122;DHT22;11227;53.046;10.512;2022-12-26T16:18:40;14.90;1.00
22122;DHT22;11227;53.046;10.512;2022-12-26T16:22:41;14.90;1.00
22122;DHT22;11227;53.046;10.512;2022-12-26T16:26:45;14.90;1.00
22122;DHT22;11227;53.046;10.512;2022-12-26T16:30:48;14.90;1.00
22122;DHT22;11227;53.046;10.512;2022-12-26T16:34:51;15.00;1.00
22122;DHT22;11227;53.046;10.512;2022-12-26T16:38:53;14.90;1.00
22122;DHT22;11227;53.046;10.512;2022-12-26T16:43:21;14.90;1.00
22122;DHT22;11227;53.046;10.512;2022-12-26T16:47:18;14.90;1.00
22122;DHT22;11227;53.046;10.512;2022-12-26T16:59:55;15.00;1.00
22122;DHT22;11227;53.046;10.512;2022-12-26T17:04:02;14.90;1.00
22122;DHT22;11227;53.046;10.512;2022-12-26T17:08:04;14.90;1.00
22122;DHT22;11227;53.046;10.512;2022-12-26T17:12:12;14.90;1.00
22122;DHT22;11227;53.046;10.512;2022-12-26T17:16:20;15.00;1.00
22122;DHT22;11227;53.046;10.512;2022-12-26T17:24:25;14.90;1.00
22122;DHT22;11227;53.046;10.512;2022-12-26T17:28:28;15.00;1.00
22122;DHT22;11227;53.046;10.512;2022-12-26T17:32:44;14.90;1.00
22122;DHT22;11227;53.046;10.512;2022-12-26T17:36:46;15.00;1.00
22122;DHT22;11227;53.046;10.512;2022-12-26T17:41:08;14.90;1.00
22122;DHT22;11227;53.046;10.512;2022-12-26T17:45:19;15.00;1.00
22122;DHT22;11227;53.046;10.512;2022-12-26T17:49:21;15.00;1.00
22122;DHT22;11227;53.046;10.512;2022-12-26T17:53:28;15.00;1.00
22122;DHT22;11227;53.046;10.512;2022-12-26T17:57:32;15.00;1.00
22122;DHT22;11227;53.046;10.512;2022-12-26T18:01:34;15.00;1.00
22122;DHT22;11227;53.046;10.512;2022-12-26T18:05:36;15.00;1.00
22122;DHT22;11227;53.046;10.512;2022-12-26T18:09:39;15.00;1.00
22122;DHT22;11227;53.046;10.512;2022-12-26T18:13:41;14.90;1.00
22122;DHT22;11227;53.046;10.512;2022-12-26T18:17:44;15.00;1.00
22122;DHT22;11227;53.046;10.512;2022-12-26T18:21:46;15.00;1.00
22122;DHT22;11227;53.046;10.512;2022-12-26T18:25:48;14.90;1.00
22122;DHT22;11227;53.046;10.512;2022-12-26T18:29:55;15.00;1.00
22122;DHT22;11227;53.046;10.512;2022-12-26T18:33:56;14.90;1.00
22122;DHT22;11227;53.046;10.512;2022-12-26T18:37:58;15.00;1.00
22122;DHT22;11227;53.046;10.512;2022-12-26T18:42:00;14.90;1.00
22122;DHT22;11227;53.046;10.512;2022-12-26T18:46:01;14.90;1.00
22122;DHT22;11227;53.046;10.512;2022-12-26T18:50:09;14.90;1.00
22122;DHT22;11227;53.046;10.512;2022-12-26T18:54:11;15.00;1.00
22122;DHT22;11227;53.046;10.512;2022-12-26T18:58:13;15.00;1.00
22122;DHT22;11227;53.046;10.512;2022-12-26T19:02:18;15.00;1.00
22122;DHT22;11227;53.046;10.512;2022-12-26T19:06:22;15.00;1.00
22122;DHT22;11227;53.046;10.512;2022-12-26T19:10:28;15.00;1.00
22122;DHT22;11227;53.046;10.512;2022-12-26T19:14:30;15.00;1.00
22122;DHT22;11227;53.046;10.512;2022-12-26T19:18:31;15.00;1.00
22122;DHT22;11227;53.046;10.512;2022-12-26T19:22:33;15.00;1.00
22122;DHT22;11227;53.046;10.512;2022-12-26T19:26:35;15.00;1.00
22122;DHT22;11227;53.046;10.512;2022-12-26T19:30:36;15.00;1.00
22122;DHT22;11227;53.046;10.512;2022-12-26T19:34:39;15.00;1.00
22122;DHT22;11227;53.046;10.512;2022-12-26T19:38:41;14.90;1.00
22122;DHT22;11227;53.046;10.512;2022-12-26T19:42:43;15.00;1.00
22122;DHT22;11227;53.046;10.512;2022-12-26T19:46:45;15.00;1.00
22122;DHT22;11227;53.046;10.512;2022-12-26T19:50:48;14.90;1.00
22122;DHT22;11227;53.046;10.512;2022-12-26T19:54:49;15.00;1.00
22122;DHT22;11227;53.046;10.512;2022-12-26T19:58:51;15.00;1.00
22122;DHT22;11227;53.046;10.512;2022-12-26T20:02:57;15.00;1.00
22122;DHT22;11227;53.046;10.512;2022-12-26T20:06:59;14.90;1.00
22122;DHT22;11227;53.046;10.512;2022-12-26T20:11:15;15.00;1.00
22122;DHT22;11227;53.046;10.512;2022-12-26T20:15:17;15.00;1.00
22122;DHT22;11227;53.046;10.512;2022-12-26T20:19:20;15.00;1.00
22122;DHT22;11227;53.046;10.512;2022-12-26T20:23:22;15.00;1.00
22122;DHT22;11227;53.046;10.512;2022-12-26T20:27:23;15.00;1.00
22122;DHT22;11227;53.046;10.512;2022-12-26T20:31:25;15.00;1.00
22122;DHT22;11227;53.046;10.512;2022-12-26T20:35:27;15.00;1.00
22122;DHT22;11227;53.046;10.512;2022-12-26T20:39:28;15.00;1.00
22122;DHT22;11227;53.046;10.512;2022-12-26T20:43:33;15.00;1.00
22122;DHT22;11227;53.046;10.512;2022-12-26T20:47:35;15.00;1.00
22122;DHT22;11227;53.046;10.512;2022-12-26T20:51:39;15.00;1.00
22122;DHT22;11227;53.046;10.512;2022-12-26T20:55:40;15.00;1.00
22122;DHT22;11227;53.046;10.512;2022-12-26T20:59:42;15.00;1.00
22122;DHT22;11227;53.046;10.512;2022-12-26T21:03:44;15.00;1.00
22122;DHT22;11227;53.046;10.512;2022-12-26T21:07:46;15.00;1.00
22122;DHT22;11227;53.046;10.512;2022-12-26T21:11:48;15.00;1.00
22122;DHT22;11227;53.046;10.512;2022-12-26T21:15:50;15.00;1.00
22122;DHT22;11227;53.046;10.512;2022-12-26T21:19:51;15.00;1.00
22122;DHT22;11227;53.046;10.512;2022-12-26T21:24:05;15.00;1.00
22122;DHT22;11227;53.046;10.512;2022-12-26T21:28:07;15.00;1.00
22122;DHT22;11227;53.046;10.512;2022-12-26T21:32:09;15.00;1.00
22122;DHT22;11227;53.046;10.512;2022-12-26T21:36:12;15.00;1.00
22122;DHT22;11227;53.046;10.512;2022-12-26T21:40:14;15.00;1.00
22122;DHT22;11227;53.046;10.512;2022-12-26T21:44:16;15.00;1.00
22122;DHT22;11227;53.046;10.512;2022-12-26T21:48:17;15.00;1.00
22122;DHT22;11227;53.046;10.512;2022-12-26T21:52:19;15.00;1.00
22122;DHT22;11227;53.046;10.512;2022-12-26T21:56:20;15.00;1.00
22122;DHT22;11227;53.046;10.512;2022-12-26T22:00:23;15.00;1.00
22122;DHT22;11227;53.046;10.512;2022-12-26T22:04:25;15.00;1.00
22122;DHT22;11227;53.046;10.512;2022-12-26T22:08:26;15.00;1.00
22122;DHT22;11227;53.046;10.512;2022-12-26T22:12:28;15.00;1.00
22122;DHT22;11227;53.046;10.512;2022-12-26T22:16:53;14.90;1.00
22122;DHT22;11227;53.046;10.512;2022-12-26T22:20:55;14.90;1.00
22122;DHT22;11227;53.046;10.512;2022-12-26T22:24:57;14.90;1.00
22122;DHT22;11227;53.046;10.512;2022-12-26T22:28:59;14.90;1.00
22122;DHT22;11227;53.046;10.512;2022-12-26T22:33:00;14.90;1.00
22122;DHT22;11227;53.046;10.512;2022-12-26T22:37:02;14.90;1.00
22122;DHT22;11227;53.046;10.512;2022-12-26T22:41:04;14.90;1.00
22122;DHT22;11227;53.046;10.512;2022-12-26T22:45:06;14.80;1.00
22122;DHT22;11227;53.046;10.512;2022-12-26T22:49:08;14.80;1.00
22122;DHT22;11227;53.046;10.512;2022-12-26T22:53:11;14.70;1.00
22122;DHT22;11227;53.046;10.512;2022-12-26T22:57:12;14.70;1.00
22122;DHT22;11227;53.046;10.512;2022-12-26T23:01:17;14.60;1.00
22122;DHT22;11227;53.046;10.512;2022-12-26T23:05:19;14.60;1.00
22122;DHT22;11227;53.046;10.512;2022-12-26T23:09:21;14.60;1.00
22122;DHT22;11227;53.046;10.512;2022-12-26T23:13:24;14.50;1.00
22122;DHT22;11227;53.046;10.512;2022-12-26T23:17:26;14.50;1.00
22122;DHT22;11227;53.046;10.512;2022-12-26T23:21:49;14.50;1.00
22122;DHT22;11227;53.046;10.512;2022-12-26T23:25:51;14.50;1.00
22122;DHT22;11227;53.046;10.512;2022-12-26T23:29:53;14.50;1.00
22122;DHT22;11227;53.046;10.512;2022-12-26T23:34:14;14.50;1.00
22122;DHT22;11227;53.046;10.512;2022-12-26T23:38:15;14.40;1.00
22122;DHT22;11227;53.046;10.512;2022-12-26T23:42:17;14.40;1.00
22122;DHT22;11227;53.046;10.512;2022-12-26T23:46:19;14.40;1.00
22122;DHT22;11227;53.046;10.512;2022-12-26T23:50:20;14.40;1.00
22122;DHT22;11227;53.046;10.512;2022-12-26T23:54:22;14.40;1.00
22122;DHT22;11227;53.046;10.512;2022-12-26T23:58:24;14.40;1.00
